sensor_id;sensor_type;location;lat;lon;timestamp;pressure;altitude;pressure_sealevel;temperature;humidity
71638;BME280;59485;43.542;-5.676;2023-05-27T00:00:56;101507.31;;;17.83;nan
71638;BME280;59485;43.542;-5.676;2023-05-27T00:03:21;101486.88;;;17.78;nan
71638;BME280;59485;43.542;-5.676;2023-05-27T00:05:47;101499.25;;;17.75;nan
71638;BME280;59485;43.542;-5.676;2023-05-27T00:08:12;101504.59;;;17.63;nan
71638;BME280;59485;43.542;-5.676;2023-05-27T00:10:38;101503.53;;;17.65;nan
71638;BME280;59485;43.542;-5.676;2023-05-27T00:13:03;101483.53;;;17.63;nan
71638;BME280;59485;43.542;-5.676;2023-05-27T00:15:29;101485.00;;;17.65;nan
71638;BME280;59485;43.542;-5.676;2023-05-27T00:17:57;101502.00;;;17.75;nan
71638;BME280;59485;43.542;-5.676;2023-05-27T00:20:23;101493.28;;;17.72;nan
71638;BME280;59485;43.542;-5.676;2023-05-27T00:22:50;101474.75;;;17.59;nan
71638;BME280;59485;43.542;-5.676;2023-05-27T00:25:16;101494.13;;;17.72;nan
71638;BME280;59485;43.542;-5.676;2023-05-27T00:27:41;101484.78;;;17.67;nan
71638;BME280;59485;43.542;-5.676;2023-05-27T00:30:07;101499.91;;;17.71;nan
71638;BME280;59485;43.542;-5.676;2023-05-27T00:32:33;101498.63;;;17.67;nan
71638;BME280;59485;43.542;-5.676;2023-05-27T00:34:58;101500.97;;;17.70;nan
71638;BME280;59485;43.542;-5.676;2023-05-27T00:37:24;101495.88;;;17.67;nan
71638;BME280;59485;43.542;-5.676;2023-05-27T00:39:50;101471.78;;;17.54;nan
71638;BME280;59485;43.542;-5.676;2023-05-27T00:42:16;101495.00;;;17.59;nan
71638;BME280;59485;43.542;-5.676;2023-05-27T00:44:41;101482.69;;;17.49;nan
71638;BME280;59485;43.542;-5.676;2023-05-27T00:47:07;101474.56;;;17.47;nan
71638;BME280;59485;43.542;-5.676;2023-05-27T00:49:33;101482.25;;;17.52;nan
71638;BME280;59485;43.542;-5.676;2023-05-27T00:51:59;101463.72;;;17.39;nan
71638;BME280;59485;43.542;-5.676;2023-05-27T00:54:25;101447.53;;;17.36;nan
71638;BME280;59485;43.542;-5.676;2023-05-27T00:56:51;101466.91;;;17.49;nan
71638;BME280;59485;43.542;-5.676;2023-05-27T00:59:17;101457.13;;;17.40;nan
71638;BME280;59485;43.542;-5.676;2023-05-27T01:01:43;101472.44;;;17.49;nan
71638;BME280;59485;43.542;-5.676;2023-05-27T01:04:09;101452.84;;;17.44;nan
71638;BME280;59485;43.542;-5.676;2023-05-27T01:12:20;101444.91;;;17.54;nan
71638;BME280;59485;43.542;-5.676;2023-05-27T01:14:51;101455.81;;;17.63;nan
71638;BME280;59485;43.542;-5.676;2023-05-27T01:17:20;101453.63;;;17.58;nan
71638;BME280;59485;43.542;-5.676;2023-05-27T01:19:47;101466.66;;;17.57;nan
71638;BME280;59485;43.542;-5.676;2023-05-27T01:22:14;101426.03;;;17.32;nan
71638;BME280;59485;43.542;-5.676;2023-05-27T01:24:41;101440.31;;;17.35;nan
71638;BME280;59485;43.542;-5.676;2023-05-27T01:27:07;101427.59;;;17.14;nan
71638;BME280;59485;43.542;-5.676;2023-05-27T01:29:34;101446.31;;;17.19;nan
71638;BME280;59485;43.542;-5.676;2023-05-27T01:32:11;101433.75;;;17.16;nan
71638;BME280;59485;43.542;-5.676;2023-05-27T01:34:54;101477.19;;;17.36;nan
71638;BME280;59485;43.542;-5.676;2023-05-27T01:37:25;101468.72;;;17.11;nan
71638;BME280;59485;43.542;-5.676;2023-05-27T01:39:54;101474.03;;;17.25;nan
71638;BME280;59485;43.542;-5.676;2023-05-27T01:42:20;101466.97;;;17.23;nan
71638;BME280;59485;43.542;-5.676;2023-05-27T01:44:46;101475.47;;;17.28;nan
71638;BME280;59485;43.542;-5.676;2023-05-27T01:47:12;101448.25;;;17.12;nan
71638;BME280;59485;43.542;-5.676;2023-05-27T01:49:37;101458.91;;;17.15;nan
71638;BME280;59485;43.542;-5.676;2023-05-27T01:52:03;101455.50;;;17.13;nan
71638;BME280;59485;43.542;-5.676;2023-05-27T01:54:29;101453.78;;;17.12;nan
71638;BME280;59485;43.542;-5.676;2023-05-27T01:56:54;101446.53;;;17.11;nan
71638;BME280;59485;43.542;-5.676;2023-05-27T01:59:20;101455.50;;;17.13;nan
71638;BME280;59485;43.542;-5.676;2023-05-27T02:01:45;101419.72;;;16.92;nan
71638;BME280;59485;43.542;-5.676;2023-05-27T02:04:11;101451.88;;;17.12;nan
71638;BME280;59485;43.542;-5.676;2023-05-27T02:06:36;101449.75;;;17.14;nan
71638;BME280;59485;43.542;-5.676;2023-05-27T02:09:02;101453.16;;;17.16;nan
71638;BME280;59485;43.542;-5.676;2023-05-27T02:11:28;101462.28;;;17.23;nan
71638;BME280;59485;43.542;-5.676;2023-05-27T02:13:54;101453.38;;;17.15;nan
71638;BME280;59485;43.542;-5.676;2023-05-27T02:16:21;101446.75;;;17.16;nan
71638;BME280;59485;43.542;-5.676;2023-05-27T02:18:50;101428.84;;;17.12;nan
71638;BME280;59485;43.542;-5.676;2023-05-27T02:21:15;101441.44;;;17.14;nan
71638;BME280;59485;43.542;-5.676;2023-05-27T02:23:41;101442.94;;;17.17;nan
71638;BME280;59485;43.542;-5.676;2023-05-27T02:26:06;101442.06;;;17.16;nan
71638;BME280;59485;43.542;-5.676;2023-05-27T02:28:32;101437.16;;;17.12;nan
71638;BME280;59485;43.542;-5.676;2023-05-27T02:30:59;101445.25;;;17.20;nan
71638;BME280;59485;43.542;-5.676;2023-05-27T02:33:25;101435.91;;;17.14;nan
71638;BME280;59485;43.542;-5.676;2023-05-27T02:35:52;101418.44;;;17.07;nan
71638;BME280;59485;43.542;-5.676;2023-05-27T02:38:20;101406.75;;;16.99;nan
71638;BME280;59485;43.542;-5.676;2023-05-27T02:40:45;101421.63;;;17.04;nan
71638;BME280;59485;43.542;-5.676;2023-05-27T02:43:11;101428.47;;;17.08;nan
71638;BME280;59485;43.542;-5.676;2023-05-27T02:45:36;101451.03;;;17.12;nan
71638;BME280;59485;43.542;-5.676;2023-05-27T02:48:02;101420.59;;;16.99;nan
71638;BME280;59485;43.542;-5.676;2023-05-27T02:50:28;101422.72;;;16.97;nan
71638;BME280;59485;43.542;-5.676;2023-05-27T02:52:54;101432.69;;;17.11;nan
71638;BME280;59485;43.542;-5.676;2023-05-27T02:55:20;101426.13;;;17.05;nan
71638;BME280;59485;43.542;-5.676;2023-05-27T02:57:45;101429.50;;;17.14;nan
71638;BME280;59485;43.542;-5.676;2023-05-27T03:00:12;101436.50;;;17.23;nan
71638;BME280;59485;43.542;-5.676;2023-05-27T03:02:38;101418.19;;;17.15;nan
71638;BME280;59485;43.542;-5.676;2023-05-27T03:05:04;101430.31;;;17.21;nan
71638;BME280;59485;43.542;-5.676;2023-05-27T03:07:30;101422.88;;;17.21;nan
71638;BME280;59485;43.542;-5.676;2023-05-27T03:09:56;101421.81;;;17.16;nan
71638;BME280;59485;43.542;-5.676;2023-05-27T03:12:22;101425.59;;;17.28;nan
71638;BME280;59485;43.542;-5.676;2023-05-27T03:14:49;101415.81;;;17.25;nan
71638;BME280;59485;43.542;-5.676;2023-05-27T03:17:14;101411.34;;;17.24;nan
71638;BME280;59485;43.542;-5.676;2023-05-27T03:19:40;101418.34;;;17.27;nan
71638;BME280;59485;43.542;-5.676;2023-05-27T03:22:07;101411.56;;;17.23;nan
71638;BME280;59485;43.542;-5.676;2023-05-27T03:24:33;101411.53;;;17.30;nan
71638;BME280;59485;43.542;-5.676;2023-05-27T03:26:59;101422.38;;;17.38;nan
71638;BME280;59485;43.542;-5.676;2023-05-27T03:29:25;101399.59;;;17.36;nan
71638;BME280;59485;43.542;-5.676;2023-05-27T03:31:50;101408.94;;;17.41;nan
71638;BME280;59485;43.542;-5.676;2023-05-27T03:34:16;101408.50;;;17.44;nan
71638;BME280;59485;43.542;-5.676;2023-05-27T03:36:41;101414.41;;;17.54;nan
71638;BME280;59485;43.542;-5.676;2023-05-27T03:39:14;101412.47;;;17.55;nan
71638;BME280;59485;43.542;-5.676;2023-05-27T03:41:40;101410.56;;;17.55;nan
71638;BME280;59485;43.542;-5.676;2023-05-27T03:44:06;101396.97;;;17.47;nan
71638;BME280;59485;43.542;-5.676;2023-05-27T03:46:32;101396.09;;;17.47;nan
71638;BME280;59485;43.542;-5.676;2023-05-27T03:49:01;101405.88;;;17.56;nan
71638;BME280;59485;43.542;-5.676;2023-05-27T03:51:27;101406.28;;;17.59;nan
71638;BME280;59485;43.542;-5.676;2023-05-27T03:53:52;101407.56;;;17.57;nan
71638;BME280;59485;43.542;-5.676;2023-05-27T03:56:18;101399.50;;;17.49;nan
71638;BME280;59485;43.542;-5.676;2023-05-27T03:58:44;101379.50;;;17.40;nan
71638;BME280;59485;43.542;-5.676;2023-05-27T04:01:10;101396.31;;;17.45;nan
71638;BME280;59485;43.542;-5.676;2023-05-27T04:03:36;101409.09;;;17.53;nan
71638;BME280;59485;43.542;-5.676;2023-05-27T04:06:02;101365.28;;;17.30;nan
71638;BME280;59485;43.542;-5.676;2023-05-27T04:08:28;101392.69;;;17.51;nan
71638;BME280;59485;43.542;-5.676;2023-05-27T04:10:54;101391.84;;;17.51;nan
71638;BME280;59485;43.542;-5.676;2023-05-27T04:13:21;101393.13;;;17.48;nan
71638;BME280;59485;43.542;-5.676;2023-05-27T04:15:46;101392.31;;;17.41;nan
71638;BME280;59485;43.542;-5.676;2023-05-27T04:18:13;101395.06;;;17.41;nan
71638;BME280;59485;43.542;-5.676;2023-05-27T04:20:40;101403.78;;;17.45;nan
71638;BME280;59485;43.542;-5.676;2023-05-27T04:23:08;101384.63;;;17.37;nan
71638;BME280;59485;43.542;-5.676;2023-05-27T04:25:33;101375.94;;;17.33;nan
71638;BME280;59485;43.542;-5.676;2023-05-27T04:28:03;101404.25;;;17.42;nan
71638;BME280;59485;43.542;-5.676;2023-05-27T04:30:34;101393.38;;;17.40;nan
71638;BME280;59485;43.542;-5.676;2023-05-27T04:33:01;101393.19;;;17.35;nan
71638;BME280;59485;43.542;-5.676;2023-05-27T04:35:27;101391.50;;;17.34;nan
71638;BME280;59485;43.542;-5.676;2023-05-27T04:37:53;101397.69;;;17.30;nan
71638;BME280;59485;43.542;-5.676;2023-05-27T04:40:18;101400.88;;;17.33;nan
71638;BME280;59485;43.542;-5.676;2023-05-27T04:42:44;101363.03;;;17.07;nan
71638;BME280;59485;43.542;-5.676;2023-05-27T04:45:10;101389.63;;;17.21;nan
71638;BME280;59485;43.542;-5.676;2023-05-27T04:47:39;101378.78;;;17.13;nan
71638;BME280;59485;43.542;-5.676;2023-05-27T04:50:07;101386.88;;;17.15;nan
71638;BME280;59485;43.542;-5.676;2023-05-27T04:52:33;101395.16;;;17.21;nan
71638;BME280;59485;43.542;-5.676;2023-05-27T04:55:04;101400.50;;;17.16;nan
71638;BME280;59485;43.542;-5.676;2023-05-27T04:57:30;101405.81;;;17.18;nan
71638;BME280;59485;43.542;-5.676;2023-05-27T04:59:56;101401.38;;;17.17;nan
71638;BME280;59485;43.542;-5.676;2023-05-27T05:02:43;101400.09;;;17.13;nan
71638;BME280;59485;43.542;-5.676;2023-05-27T05:05:12;101401.78;;;17.14;nan
71638;BME280;59485;43.542;-5.676;2023-05-27T05:07:40;101389.25;;;17.05;nan
71638;BME280;59485;43.542;-5.676;2023-05-27T05:10:10;101387.97;;;17.01;nan
71638;BME280;59485;43.542;-5.676;2023-05-27T05:12:36;101405.44;;;17.08;nan
71638;BME280;59485;43.542;-5.676;2023-05-27T05:15:03;101385.19;;;17.01;nan
71638;BME280;59485;43.542;-5.676;2023-05-27T05:17:29;101400.75;;;17.08;nan
71638;BME280;59485;43.542;-5.676;2023-05-27T05:19:54;101392.88;;;17.05;nan
71638;BME280;59485;43.542;-5.676;2023-05-27T05:22:20;101400.97;;;17.07;nan
71638;BME280;59485;43.542;-5.676;2023-05-27T05:24:48;101396.50;;;17.06;nan
71638;BME280;59485;43.542;-5.676;2023-05-27T05:27:14;101404.38;;;17.09;nan
71638;BME280;59485;43.542;-5.676;2023-05-27T05:29:39;101397.13;;;17.08;nan
71638;BME280;59485;43.542;-5.676;2023-05-27T05:32:06;101398.84;;;17.09;nan
71638;BME280;59485;43.542;-5.676;2023-05-27T05:34:32;101399.44;;;17.11;nan
71638;BME280;59485;43.542;-5.676;2023-05-27T05:36:57;101406.25;;;17.21;nan
71638;BME280;59485;43.542;-5.676;2023-05-27T05:39:23;101404.56;;;17.14;nan
71638;BME280;59485;43.542;-5.676;2023-05-27T05:41:48;101409.81;;;17.29;nan
71638;BME280;59485;43.542;-5.676;2023-05-27T05:44:15;101417.66;;;17.45;nan
71638;BME280;59485;43.542;-5.676;2023-05-27T05:46:41;101412.13;;;17.38;nan
71638;BME280;59485;43.542;-5.676;2023-05-27T05:49:07;101408.94;;;17.41;nan
71638;BME280;59485;43.542;-5.676;2023-05-27T05:51:32;101432.44;;;17.25;nan
71638;BME280;59485;43.542;-5.676;2023-05-27T05:53:58;101410.38;;;16.86;nan
71638;BME280;59485;43.542;-5.676;2023-05-27T05:56:24;101457.66;;;17.04;nan
71638;BME280;59485;43.542;-5.676;2023-05-27T05:58:51;101477.06;;;16.98;nan
71638;BME280;59485;43.542;-5.676;2023-05-27T06:01:16;101471.28;;;16.93;nan
71638;BME280;59485;43.542;-5.676;2023-05-27T06:03:42;101458.72;;;16.97;nan
71638;BME280;59485;43.542;-5.676;2023-05-27T06:06:08;101463.38;;;17.09;nan
71638;BME280;59485;43.542;-5.676;2023-05-27T06:08:33;101463.81;;;17.13;nan
71638;BME280;59485;43.542;-5.676;2023-05-27T06:10:59;101446.13;;;17.01;nan
71638;BME280;59485;43.542;-5.676;2023-05-27T06:13:25;101457.63;;;17.11;nan
71638;BME280;59485;43.542;-5.676;2023-05-27T06:15:50;101447.19;;;17.13;nan
71638;BME280;59485;43.542;-5.676;2023-05-27T06:18:16;101460.38;;;17.24;nan
71638;BME280;59485;43.542;-5.676;2023-05-27T06:20:41;101448.84;;;17.27;nan
71638;BME280;59485;43.542;-5.676;2023-05-27T06:23:07;101467.78;;;17.37;nan
71638;BME280;59485;43.542;-5.676;2023-05-27T06:25:32;101449.69;;;17.27;nan
71638;BME280;59485;43.542;-5.676;2023-05-27T06:27:58;101451.22;;;17.23;nan
71638;BME280;59485;43.542;-5.676;2023-05-27T06:30:24;101437.13;;;17.18;nan
71638;BME280;59485;43.542;-5.676;2023-05-27T06:32:51;101471.41;;;17.37;nan
71638;BME280;59485;43.542;-5.676;2023-05-27T06:35:17;101459.50;;;17.30;nan
71638;BME280;59485;43.542;-5.676;2023-05-27T06:37:42;101468.66;;;17.31;nan
71638;BME280;59485;43.542;-5.676;2023-05-27T06:40:09;101466.97;;;17.30;nan
71638;BME280;59485;43.542;-5.676;2023-05-27T06:42:36;101455.03;;;17.36;nan
71638;BME280;59485;43.542;-5.676;2023-05-27T06:45:01;101439.63;;;17.40;nan
71638;BME280;59485;43.542;-5.676;2023-05-27T06:47:27;101457.13;;;17.40;nan
71638;BME280;59485;43.542;-5.676;2023-05-27T06:49:52;101443.91;;;17.42;nan
71638;BME280;59485;43.542;-5.676;2023-05-27T06:52:18;101435.59;;;17.42;nan
71638;BME280;59485;43.542;-5.676;2023-05-27T06:54:44;101459.22;;;17.51;nan
71638;BME280;59485;43.542;-5.676;2023-05-27T06:57:09;101474.78;;;17.52;nan
71638;BME280;59485;43.542;-5.676;2023-05-27T06:59:34;101463.44;;;17.54;nan
71638;BME280;59485;43.542;-5.676;2023-05-27T07:02:00;101452.66;;;17.39;nan
71638;BME280;59485;43.542;-5.676;2023-05-27T07:04:26;101464.75;;;17.51;nan
71638;BME280;59485;43.542;-5.676;2023-05-27T07:06:51;101442.84;;;17.43;nan
71638;BME280;59485;43.542;-5.676;2023-05-27T07:09:17;101467.72;;;17.56;nan
71638;BME280;59485;43.542;-5.676;2023-05-27T07:11:42;101433.44;;;17.44;nan
71638;BME280;59485;43.542;-5.676;2023-05-27T07:14:08;101450.00;;;17.57;nan
71638;BME280;59485;43.542;-5.676;2023-05-27T07:16:37;101465.56;;;17.65;nan
71638;BME280;59485;43.542;-5.676;2023-05-27T07:19:02;101436.78;;;17.59;nan
71638;BME280;59485;43.542;-5.676;2023-05-27T07:21:28;101452.72;;;17.77;nan
71638;BME280;59485;43.542;-5.676;2023-05-27T07:23:53;101446.75;;;17.80;nan
71638;BME280;59485;43.542;-5.676;2023-05-27T07:26:19;101451.66;;;17.78;nan
71638;BME280;59485;43.542;-5.676;2023-05-27T07:28:45;101449.75;;;17.79;nan
71638;BME280;59485;43.542;-5.676;2023-05-27T07:31:11;101453.97;;;17.81;nan
71638;BME280;59485;43.542;-5.676;2023-05-27T07:33:36;101458.19;;;17.97;nan
71638;BME280;59485;43.542;-5.676;2023-05-27T07:36:02;101455.63;;;17.95;nan
71638;BME280;59485;43.542;-5.676;2023-05-27T07:38:28;101432.41;;;17.83;nan
71638;BME280;59485;43.542;-5.676;2023-05-27T07:40:53;101466.59;;;18.15;nan
71638;BME280;59485;43.542;-5.676;2023-05-27T07:43:19;101454.66;;;18.15;nan
71638;BME280;59485;43.542;-5.676;2023-05-27T07:45:45;101441.03;;;18.07;nan
71638;BME280;59485;43.542;-5.676;2023-05-27T07:48:10;101443.34;;;18.16;nan
71638;BME280;59485;43.542;-5.676;2023-05-27T07:50:36;101435.50;;;18.07;nan
71638;BME280;59485;43.542;-5.676;2023-05-27T07:53:01;101426.91;;;18.15;nan
71638;BME280;59485;43.542;-5.676;2023-05-27T07:55:27;101453.53;;;18.22;nan
71638;BME280;59485;43.542;-5.676;2023-05-27T07:57:54;101437.78;;;18.16;nan
71638;BME280;59485;43.542;-5.676;2023-05-27T08:00:20;101473.34;;;18.26;nan
71638;BME280;59485;43.542;-5.676;2023-05-27T08:02:45;101433.97;;;18.11;nan
71638;BME280;59485;43.542;-5.676;2023-05-27T08:05:11;101460.72;;;18.30;nan
71638;BME280;59485;43.542;-5.676;2023-05-27T08:07:36;101430.03;;;18.25;nan
71638;BME280;59485;43.542;-5.676;2023-05-27T08:10:05;101448.63;;;18.49;nan
71638;BME280;59485;43.542;-5.676;2023-05-27T08:12:31;101433.25;;;18.47;nan
71638;BME280;59485;43.542;-5.676;2023-05-27T08:14:57;101441.19;;;18.43;nan
71638;BME280;59485;43.542;-5.676;2023-05-27T08:17:23;101459.25;;;18.59;nan
71638;BME280;59485;43.542;-5.676;2023-05-27T08:19:48;101466.75;;;18.58;nan
71638;BME280;59485;43.542;-5.676;2023-05-27T08:22:14;101461.19;;;18.58;nan
71638;BME280;59485;43.542;-5.676;2023-05-27T08:24:39;101442.38;;;18.54;nan
71638;BME280;59485;43.542;-5.676;2023-05-27T08:27:05;101460.19;;;18.71;nan
71638;BME280;59485;43.542;-5.676;2023-05-27T08:29:33;101424.47;;;18.50;nan
71638;BME280;59485;43.542;-5.676;2023-05-27T08:31:59;101441.03;;;18.63;nan
71638;BME280;59485;43.542;-5.676;2023-05-27T08:34:24;101467.47;;;18.72;nan
71638;BME280;59485;43.542;-5.676;2023-05-27T08:36:51;101469.38;;;18.71;nan
71638;BME280;59485;43.542;-5.676;2023-05-27T08:39:17;101449.78;;;18.66;nan
71638;BME280;59485;43.542;-5.676;2023-05-27T08:41:42;101454.66;;;18.71;nan
71638;BME280;59485;43.542;-5.676;2023-05-27T08:44:08;101447.97;;;18.79;nan
71638;BME280;59485;43.542;-5.676;2023-05-27T08:46:35;101439.25;;;18.75;nan
71638;BME280;59485;43.542;-5.676;2023-05-27T08:49:01;101453.25;;;18.87;nan
71638;BME280;59485;43.542;-5.676;2023-05-27T08:51:27;101441.28;;;18.86;nan
71638;BME280;59485;43.542;-5.676;2023-05-27T08:53:53;101446.91;;;18.98;nan
71638;BME280;59485;43.542;-5.676;2023-05-27T08:56:19;101457.34;;;19.02;nan
71638;BME280;59485;43.542;-5.676;2023-05-27T08:58:46;101438.75;;;19.03;nan
71638;BME280;59485;43.542;-5.676;2023-05-27T09:01:15;101448.38;;;19.00;nan
71638;BME280;59485;43.542;-5.676;2023-05-27T09:03:41;101443.28;;;18.97;nan
71638;BME280;59485;43.542;-5.676;2023-05-27T09:06:07;101449.16;;;19.07;nan
71638;BME280;59485;43.542;-5.676;2023-05-27T09:08:32;101434.09;;;18.97;nan
71638;BME280;59485;43.542;-5.676;2023-05-27T09:10:58;101448.72;;;19.10;nan
71638;BME280;59485;43.542;-5.676;2023-05-27T09:13:28;101441.13;;;18.99;nan
71638;BME280;59485;43.542;-5.676;2023-05-27T09:16:01;101435.25;;;18.89;nan
71638;BME280;59485;43.542;-5.676;2023-05-27T09:18:31;101456.09;;;18.98;nan
71638;BME280;59485;43.542;-5.676;2023-05-27T09:20:58;101452.41;;;19.04;nan
71638;BME280;59485;43.542;-5.676;2023-05-27T09:23:23;101455.78;;;19.06;nan
71638;BME280;59485;43.542;-5.676;2023-05-27T09:25:49;101432.72;;;18.88;nan
71638;BME280;59485;43.542;-5.676;2023-05-27T09:28:25;101455.19;;;19.04;nan
71638;BME280;59485;43.542;-5.676;2023-05-27T09:31:04;101442.81;;;19.00;nan
71638;BME280;59485;43.542;-5.676;2023-05-27T09:33:35;101464.22;;;19.18;nan
71638;BME280;59485;43.542;-5.676;2023-05-27T09:36:02;101464.94;;;19.14;nan
71638;BME280;59485;43.542;-5.676;2023-05-27T09:38:29;101470.56;;;19.25;nan
71638;BME280;59485;43.542;-5.676;2023-05-27T09:40:56;101455.66;;;19.01;nan
71638;BME280;59485;43.542;-5.676;2023-05-27T09:43:23;101466.06;;;19.06;nan
71638;BME280;59485;43.542;-5.676;2023-05-27T09:45:49;101438.13;;;19.01;nan
71638;BME280;59485;43.542;-5.676;2023-05-27T09:48:18;101444.69;;;19.25;nan
71638;BME280;59485;43.542;-5.676;2023-05-27T09:50:44;101455.50;;;19.33;nan
71638;BME280;59485;43.542;-5.676;2023-05-27T09:53:11;101454.50;;;19.27;nan
71638;BME280;59485;43.542;-5.676;2023-05-27T09:55:40;101456.22;;;19.28;nan
71638;BME280;59485;43.542;-5.676;2023-05-27T09:58:06;101447.47;;;19.43;nan
71638;BME280;59485;43.542;-5.676;2023-05-27T10:00:33;101463.81;;;19.58;nan
71638;BME280;59485;43.542;-5.676;2023-05-27T10:03:00;101467.25;;;19.71;nan
71638;BME280;59485;43.542;-5.676;2023-05-27T10:05:26;101452.50;;;19.71;nan
71638;BME280;59485;43.542;-5.676;2023-05-27T10:07:52;101455.91;;;19.73;nan
71638;BME280;59485;43.542;-5.676;2023-05-27T10:10:18;101425.91;;;19.75;nan
71638;BME280;59485;43.542;-5.676;2023-05-27T10:12:48;101447.31;;;20.04;nan
71638;BME280;59485;43.542;-5.676;2023-05-27T10:15:29;101465.06;;;20.21;nan
71638;BME280;59485;43.542;-5.676;2023-05-27T10:17:59;101434.53;;;20.15;nan
71638;BME280;59485;43.542;-5.676;2023-05-27T10:20:38;101469.16;;;20.19;nan
71638;BME280;59485;43.542;-5.676;2023-05-27T10:25:40;101476.38;;;19.78;nan
71638;BME280;59485;43.542;-5.676;2023-05-27T10:28:07;101456.53;;;19.75;nan
71638;BME280;59485;43.542;-5.676;2023-05-27T10:30:45;101439.41;;;19.90;nan
71638;BME280;59485;43.542;-5.676;2023-05-27T10:33:11;101461.00;;;20.06;nan
71638;BME280;59485;43.542;-5.676;2023-05-27T10:35:42;101476.84;;;20.05;nan
71638;BME280;59485;43.542;-5.676;2023-05-27T10:38:15;101478.97;;;19.92;nan
71638;BME280;59485;43.542;-5.676;2023-05-27T10:40:41;101466.28;;;19.66;nan
71638;BME280;59485;43.542;-5.676;2023-05-27T10:43:15;101496.88;;;19.66;nan
71638;BME280;59485;43.542;-5.676;2023-05-27T10:45:40;101464.25;;;19.36;nan
71638;BME280;59485;43.542;-5.676;2023-05-27T10:48:15;101486.88;;;19.40;nan
71638;BME280;59485;43.542;-5.676;2023-05-27T10:50:49;101487.50;;;19.60;nan
71638;BME280;59485;43.542;-5.676;2023-05-27T10:53:18;101470.22;;;19.58;nan
71638;BME280;59485;43.542;-5.676;2023-05-27T10:55:44;101494.41;;;19.58;nan
71638;BME280;59485;43.542;-5.676;2023-05-27T10:58:11;101490.47;;;19.65;nan
71638;BME280;59485;43.542;-5.676;2023-05-27T11:00:37;101481.72;;;19.62;nan
71638;BME280;59485;43.542;-5.676;2023-05-27T11:03:16;101483.81;;;19.66;nan
71638;BME280;59485;43.542;-5.676;2023-05-27T11:05:41;101466.09;;;19.61;nan
71638;BME280;59485;43.542;-5.676;2023-05-27T11:08:11;101475.25;;;19.50;nan
71638;BME280;59485;43.542;-5.676;2023-05-27T11:10:40;101480.59;;;19.44;nan
71638;BME280;59485;43.542;-5.676;2023-05-27T11:13:06;101495.56;;;19.50;nan
71638;BME280;59485;43.542;-5.676;2023-05-27T11:15:31;101490.13;;;19.37;nan
71638;BME280;59485;43.542;-5.676;2023-05-27T11:18:02;101479.22;;;19.35;nan
71638;BME280;59485;43.542;-5.676;2023-05-27T11:20:36;101494.47;;;19.51;nan
71638;BME280;59485;43.542;-5.676;2023-05-27T11:23:01;101468.00;;;19.48;nan
71638;BME280;59485;43.542;-5.676;2023-05-27T11:25:27;101450.97;;;19.38;nan
71638;BME280;59485;43.542;-5.676;2023-05-27T11:27:52;101480.59;;;19.44;nan
71638;BME280;59485;43.542;-5.676;2023-05-27T11:30:23;101493.63;;;19.51;nan
71638;BME280;59485;43.542;-5.676;2023-05-27T11:32:49;101480.06;;;19.36;nan
71638;BME280;59485;43.542;-5.676;2023-05-27T11:35:16;101501.78;;;19.45;nan
71638;BME280;59485;43.542;-5.676;2023-05-27T11:37:51;101492.59;;;19.45;nan
71638;BME280;59485;43.542;-5.676;2023-05-27T11:40:17;101499.53;;;19.36;nan
71638;BME280;59485;43.542;-5.676;2023-05-27T11:42:44;101494.91;;;19.30;nan
71638;BME280;59485;43.542;-5.676;2023-05-27T11:45:17;101501.16;;;19.43;nan
71638;BME280;59485;43.542;-5.676;2023-05-27T11:47:44;101486.47;;;19.36;nan
71638;BME280;59485;43.542;-5.676;2023-05-27T11:50:14;101450.13;;;19.38;nan
71638;BME280;59485;43.542;-5.676;2023-05-27T11:52:56;101457.22;;;19.52;nan
71638;BME280;59485;43.542;-5.676;2023-05-27T11:55:23;101474.09;;;19.57;nan
71638;BME280;59485;43.542;-5.676;2023-05-27T11:57:49;101436.22;;;19.38;nan
71638;BME280;59485;43.542;-5.676;2023-05-27T12:00:14;101434.28;;;19.20;nan
71638;BME280;59485;43.542;-5.676;2023-05-27T12:02:41;101441.84;;;19.13;nan
71638;BME280;59485;43.542;-5.676;2023-05-27T12:05:08;101438.03;;;19.07;nan
71638;BME280;59485;43.542;-5.676;2023-05-27T12:07:34;101438.00;;;19.14;nan
71638;BME280;59485;43.542;-5.676;2023-05-27T12:10:01;101475.59;;;19.35;nan
71638;BME280;59485;43.542;-5.676;2023-05-27T12:12:26;101420.28;;;19.08;nan
71638;BME280;59485;43.542;-5.676;2023-05-27T12:14:52;101445.53;;;19.25;nan
71638;BME280;59485;43.542;-5.676;2023-05-27T12:17:17;101471.41;;;19.44;nan
71638;BME280;59485;43.542;-5.676;2023-05-27T12:19:43;101441.78;;;19.38;nan
71638;BME280;59485;43.542;-5.676;2023-05-27T12:22:08;101449.69;;;19.59;nan
71638;BME280;59485;43.542;-5.676;2023-05-27T12:24:34;101431.72;;;19.37;nan
71638;BME280;59485;43.542;-5.676;2023-05-27T12:27:00;101436.34;;;19.61;nan
71638;BME280;59485;43.542;-5.676;2023-05-27T12:29:26;101448.13;;;19.63;nan
71638;BME280;59485;43.542;-5.676;2023-05-27T12:31:52;101407.47;;;19.62;nan
71638;BME280;59485;43.542;-5.676;2023-05-27T12:34:18;101407.66;;;19.79;nan
71638;BME280;59485;43.542;-5.676;2023-05-27T12:36:43;101411.63;;;20.01;nan
71638;BME280;59485;43.542;-5.676;2023-05-27T12:39:09;101405.84;;;20.14;nan
71638;BME280;59485;43.542;-5.676;2023-05-27T12:41:35;101391.00;;;20.20;nan
71638;BME280;59485;43.542;-5.676;2023-05-27T12:44:01;101415.78;;;20.64;nan
71638;BME280;59485;43.542;-5.676;2023-05-27T12:46:27;101406.69;;;20.80;nan
71638;BME280;59485;43.542;-5.676;2023-05-27T12:48:52;101375.31;;;20.84;nan
71638;BME280;59485;43.542;-5.676;2023-05-27T12:51:17;101387.19;;;20.91;nan
71638;BME280;59485;43.542;-5.676;2023-05-27T12:53:43;101399.88;;;20.87;nan
71638;BME280;59485;43.542;-5.676;2023-05-27T12:56:09;101375.78;;;20.70;nan
71638;BME280;59485;43.542;-5.676;2023-05-27T12:58:35;101401.22;;;20.85;nan
71638;BME280;59485;43.542;-5.676;2023-05-27T13:01:00;101395.53;;;20.80;nan
71638;BME280;59485;43.542;-5.676;2023-05-27T13:03:26;101412.50;;;20.78;nan
71638;BME280;59485;43.542;-5.676;2023-05-27T13:05:51;101396.41;;;20.92;nan